sensor_id;sensor_type;location;lat;lon;timestamp;pressure;altitude;pressure_sealevel;temperature;humidity
42511;BME280;28141;51.120;17.114;2023-03-03T00:02:06;102105.70;;;24.46;26.44
42511;BME280;28141;51.120;17.114;2023-03-03T00:05:20;102105.08;;;24.44;26.55
42511;BME280;28141;51.120;17.114;2023-03-03T00:08:34;102111.24;;;24.46;26.39
42511;BME280;28141;51.120;17.114;2023-03-03T00:11:53;102112.73;;;24.42;26.51
42511;BME280;28141;51.120;17.114;2023-03-03T00:15:38;102121.24;;;24.41;26.49
42511;BME280;28141;51.120;17.114;2023-03-03T00:18:53;102117.36;;;24.35;26.52
42511;BME280;28141;51.120;17.114;2023-03-03T00:25:33;102128.87;;;24.32;26.54
42511;BME280;28141;51.120;17.114;2023-03-03T00:28:49;102131.84;;;24.30;26.81
42511;BME280;28141;51.120;17.114;2023-03-03T00:32:17;102136.12;;;24.33;26.58
42511;BME280;28141;51.120;17.114;2023-03-03T00:39:30;102121.65;;;24.10;26.84
42511;BME280;28141;51.120;17.114;2023-03-03T00:42:49;102115.95;;;24.18;26.80
42511;BME280;28141;51.120;17.114;2023-03-03T00:46:36;102109.41;;;24.25;26.66
42511;BME280;28141;51.120;17.114;2023-03-03T00:49:50;102110.27;;;24.26;26.73
42511;BME280;28141;51.120;17.114;2023-03-03T00:53:10;102107.08;;;24.22;26.68
42511;BME280;28141;51.120;17.114;2023-03-03T00:56:24;102109.67;;;24.30;26.73
42511;BME280;28141;51.120;17.114;2023-03-03T00:59:39;102100.91;;;24.27;26.49
42511;BME280;28141;51.120;17.114;2023-03-03T01:03:24;102100.27;;;24.25;26.57
42511;BME280;28141;51.120;17.114;2023-03-03T01:06:38;102098.54;;;24.24;26.71
42511;BME280;28141;51.120;17.114;2023-03-03T01:09:52;102094.01;;;24.16;26.48
42511;BME280;28141;51.120;17.114;2023-03-03T01:13:06;102090.38;;;24.16;26.67
42511;BME280;28141;51.120;17.114;2023-03-03T01:16:21;102087.87;;;24.21;26.63
42511;BME280;28141;51.120;17.114;2023-03-03T01:20:05;102091.20;;;24.10;26.62
42511;BME280;28141;51.120;17.114;2023-03-03T01:23:19;102084.81;;;24.09;26.62
42511;BME280;28141;51.120;17.114;2023-03-03T01:26:33;102073.11;;;24.14;26.66
42511;BME280;28141;51.120;17.114;2023-03-03T01:29:47;102072.88;;;24.09;26.72
42511;BME280;28141;51.120;17.114;2023-03-03T01:33:01;102069.26;;;24.08;26.71
42511;BME280;28141;51.120;17.114;2023-03-03T01:36:45;102068.59;;;24.06;26.70
42511;BME280;28141;51.120;17.114;2023-03-03T01:39:58;102062.89;;;24.14;26.80
42511;BME280;28141;51.120;17.114;2023-03-03T01:43:14;102054.55;;;24.08;26.70
42511;BME280;28141;51.120;17.114;2023-03-03T01:46:33;102044.82;;;24.18;26.51
42511;BME280;28141;51.120;17.114;2023-03-03T01:50:37;102058.01;;;24.16;26.58
42511;BME280;28141;51.120;17.114;2023-03-03T01:53:47;102044.80;;;24.12;26.59
42511;BME280;28141;51.120;17.114;2023-03-03T01:57:06;102042.66;;;24.14;26.68
42511;BME280;28141;51.120;17.114;2023-03-03T02:00:58;102042.26;;;24.17;26.54
42511;BME280;28141;51.120;17.114;2023-03-03T02:04:13;102042.26;;;24.17;26.69
42511;BME280;28141;51.120;17.114;2023-03-03T02:07:29;102038.22;;;24.19;26.68
42511;BME280;28141;51.120;17.114;2023-03-03T02:10:45;102040.63;;;24.22;26.60
42511;BME280;28141;51.120;17.114;2023-03-03T02:14:00;102036.56;;;24.25;26.59
42511;BME280;28141;51.120;17.114;2023-03-03T02:17:13;102023.53;;;24.19;26.46
42511;BME280;28141;51.120;17.114;2023-03-03T02:21:05;102022.73;;;24.25;26.45
42511;BME280;28141;51.120;17.114;2023-03-03T02:24:29;102017.98;;;24.19;26.35
42511;BME280;28141;51.120;17.114;2023-03-03T02:27:46;102020.77;;;24.19;26.34
42511;BME280;28141;51.120;17.114;2023-03-03T02:31:27;102035.26;;;24.21;26.47
42511;BME280;28141;51.120;17.114;2023-03-03T02:34:49;102030.63;;;24.28;26.46
42511;BME280;28141;51.120;17.114;2023-03-03T02:38:13;102028.72;;;24.28;26.56
42511;BME280;28141;51.120;17.114;2023-03-03T02:42:01;102037.37;;;24.19;26.43
42511;BME280;28141;51.120;17.114;2023-03-03T02:45:16;102031.18;;;24.17;26.48
42511;BME280;28141;51.120;17.114;2023-03-03T02:48:30;102036.12;;;24.21;26.44
42511;BME280;28141;51.120;17.114;2023-03-03T02:51:44;102048.65;;;24.17;26.55
42511;BME280;28141;51.120;17.114;2023-03-03T02:55:26;102056.09;;;24.17;26.49
42511;BME280;28141;51.120;17.114;2023-03-03T02:58:40;102064.17;;;24.12;26.51
42511;BME280;28141;51.120;17.114;2023-03-03T03:01:55;102070.77;;;24.11;26.33
42511;BME280;28141;51.120;17.114;2023-03-03T03:05:09;102070.34;;;24.14;26.47
42511;BME280;28141;51.120;17.114;2023-03-03T03:08:49;102078.45;;;24.15;26.50
42511;BME280;28141;51.120;17.114;2023-03-03T03:12:03;102060.75;;;24.10;26.59
42511;BME280;28141;51.120;17.114;2023-03-03T03:15:17;102060.09;;;24.08;26.67
42511;BME280;28141;51.120;17.114;2023-03-03T03:18:31;102063.88;;;24.00;26.69
42511;BME280;28141;51.120;17.114;2023-03-03T03:21:45;102056.44;;;24.00;26.44
42511;BME280;28141;51.120;17.114;2023-03-03T03:25:24;102049.99;;;23.93;26.65
42511;BME280;28141;51.120;17.114;2023-03-03T03:28:38;102044.26;;;23.95;26.66
42511;BME280;28141;51.120;17.114;2023-03-03T03:31:52;102035.55;;;23.98;26.67
42511;BME280;28141;51.120;17.114;2023-03-03T03:35:07;102026.20;;;23.99;26.49
42511;BME280;28141;51.120;17.114;2023-03-03T03:38:45;102025.99;;;24.00;26.67
42511;BME280;28141;51.120;17.114;2023-03-03T03:41:59;102027.66;;;24.01;26.69
42511;BME280;28141;51.120;17.114;2023-03-03T03:45:13;102021.25;;;23.94;26.70
42511;BME280;28141;51.120;17.114;2023-03-03T03:48:27;102035.75;;;23.96;26.72
42511;BME280;28141;51.120;17.114;2023-03-03T03:52:09;102045.77;;;23.97;26.65
42511;BME280;28141;51.120;17.114;2023-03-03T03:55:23;102045.77;;;23.97;26.73
42511;BME280;28141;51.120;17.114;2023-03-03T03:58:40;102043.80;;;23.91;26.51
42511;BME280;28141;51.120;17.114;2023-03-03T04:01:54;102049.10;;;23.86;26.61
42511;BME280;28141;51.120;17.114;2023-03-03T04:05:33;102057.02;;;23.89;26.72
42511;BME280;28141;51.120;17.114;2023-03-03T04:08:47;102062.93;;;23.86;26.82
42511;BME280;28141;51.120;17.114;2023-03-03T04:12:02;102065.45;;;23.81;26.81
42511;BME280;28141;51.120;17.114;2023-03-03T04:15:16;102063.13;;;23.85;26.70
42511;BME280;28141;51.120;17.114;2023-03-03T04:18:55;102068.46;;;23.86;26.75
42511;BME280;28141;51.120;17.114;2023-03-03T04:22:09;102069.52;;;23.85;26.71
42511;BME280;28141;51.120;17.114;2023-03-03T04:25:25;102082.31;;;23.86;26.52
42511;BME280;28141;51.120;17.114;2023-03-03T04:28:39;102075.52;;;23.89;26.90
42511;BME280;28141;51.120;17.114;2023-03-03T04:31:53;102073.14;;;23.86;26.94
42511;BME280;28141;51.120;17.114;2023-03-03T04:35:33;102073.70;;;23.75;26.82
42511;BME280;28141;51.120;17.114;2023-03-03T04:38:47;102082.70;;;23.83;26.84
42511;BME280;28141;51.120;17.114;2023-03-03T04:42:01;102086.32;;;23.84;26.64
42511;BME280;28141;51.120;17.114;2023-03-03T04:45:15;102096.54;;;23.83;26.78
42511;BME280;28141;51.120;17.114;2023-03-03T04:48:55;102095.29;;;23.86;26.75
42511;BME280;28141;51.120;17.114;2023-03-03T04:52:09;102100.55;;;23.81;27.01
42511;BME280;28141;51.120;17.114;2023-03-03T04:55:23;102086.72;;;23.81;26.79
42511;BME280;28141;51.120;17.114;2023-03-03T04:58:37;102098.14;;;23.71;26.86
42511;BME280;28141;51.120;17.114;2023-03-03T05:02:17;102081.70;;;23.63;26.87
42511;BME280;28141;51.120;17.114;2023-03-03T05:05:32;102085.71;;;23.60;26.65
42511;BME280;28141;51.120;17.114;2023-03-03T05:08:46;102084.80;;;23.53;26.98
42511;BME280;28141;51.120;17.114;2023-03-03T05:12:00;102080.02;;;23.47;27.12
42511;BME280;28141;51.120;17.114;2023-03-03T05:15:38;102070.43;;;23.43;27.01
42511;BME280;28141;51.120;17.114;2023-03-03T05:18:52;102068.53;;;23.44;26.99
42511;BME280;28141;51.120;17.114;2023-03-03T05:22:06;102065.37;;;23.47;26.83
42511;BME280;28141;51.120;17.114;2023-03-03T05:25:20;102073.93;;;23.52;27.09
42511;BME280;28141;51.120;17.114;2023-03-03T05:28:59;102093.34;;;23.58;26.93
42511;BME280;28141;51.120;17.114;2023-03-03T05:32:14;102073.79;;;23.60;26.86
42511;BME280;28141;51.120;17.114;2023-03-03T05:35:28;102077.21;;;23.62;26.77
42511;BME280;28141;51.120;17.114;2023-03-03T05:38:42;102068.91;;;23.62;26.91
42511;BME280;28141;51.120;17.114;2023-03-03T05:42:21;102070.36;;;23.58;26.76
42511;BME280;28141;51.120;17.114;2023-03-03T05:45:36;102069.07;;;23.54;26.77
42511;BME280;28141;51.120;17.114;2023-03-03T05:48:50;102068.67;;;23.57;26.69
42511;BME280;28141;51.120;17.114;2023-03-03T05:52:05;102081.84;;;23.55;26.59
42511;BME280;28141;51.120;17.114;2023-03-03T05:55:19;102083.36;;;23.57;26.79
42511;BME280;28141;51.120;17.114;2023-03-03T05:58:59;102091.58;;;23.51;26.69
42511;BME280;28141;51.120;17.114;2023-03-03T06:02:13;102084.84;;;23.60;26.64
42511;BME280;28141;51.120;17.114;2023-03-03T06:05:27;102085.12;;;23.65;26.95
42511;BME280;28141;51.120;17.114;2023-03-03T06:08:41;102089.68;;;23.51;26.82
42511;BME280;28141;51.120;17.114;2023-03-03T06:12:19;102088.13;;;23.49;27.01
42511;BME280;28141;51.120;17.114;2023-03-03T06:15:34;102087.77;;;23.52;27.10
42511;BME280;28141;51.120;17.114;2023-03-03T06:18:48;102085.35;;;23.49;27.10
42511;BME280;28141;51.120;17.114;2023-03-03T06:22:03;102095.52;;;23.63;27.16
42511;BME280;28141;51.120;17.114;2023-03-03T06:25:42;102105.27;;;23.59;27.45
42511;BME280;28141;51.120;17.114;2023-03-03T06:28:56;102108.11;;;23.65;27.73
42511;BME280;28141;51.120;17.114;2023-03-03T06:32:11;102126.94;;;23.77;27.43
42511;BME280;28141;51.120;17.114;2023-03-03T06:35:25;102122.30;;;23.84;27.56
42511;BME280;28141;51.120;17.114;2023-03-03T06:39:06;102124.68;;;23.87;27.41
42511;BME280;28141;51.120;17.114;2023-03-03T06:42:20;102103.83;;;23.91;27.64
42511;BME280;28141;51.120;17.114;2023-03-03T06:45:37;102114.97;;;23.97;27.30
42511;BME280;28141;51.120;17.114;2023-03-03T06:48:51;102108.37;;;23.98;27.30
42511;BME280;28141;51.120;17.114;2023-03-03T06:52:30;102107.13;;;24.01;27.18
42511;BME280;28141;51.120;17.114;2023-03-03T06:55:44;102116.48;;;24.00;27.35
42511;BME280;28141;51.120;17.114;2023-03-03T06:58:59;102123.11;;;24.06;26.86
42511;BME280;28141;51.120;17.114;2023-03-03T07:02:16;102115.55;;;24.21;26.72
42511;BME280;28141;51.120;17.114;2023-03-03T07:05:55;102125.18;;;24.25;26.58
42511;BME280;28141;51.120;17.114;2023-03-03T07:09:17;102125.47;;;24.36;26.49
42511;BME280;28141;51.120;17.114;2023-03-03T07:12:34;102133.17;;;24.41;26.39
42511;BME280;28141;51.120;17.114;2023-03-03T07:16:15;102145.13;;;24.48;26.31
42511;BME280;28141;51.120;17.114;2023-03-03T07:19:34;102152.97;;;24.38;26.53
42511;BME280;28141;51.120;17.114;2023-03-03T07:22:49;102144.77;;;24.58;26.39
42511;BME280;28141;51.120;17.114;2023-03-03T07:26:30;102165.70;;;24.67;26.22
42511;BME280;28141;51.120;17.114;2023-03-03T07:29:47;102160.20;;;24.73;26.15
42511;BME280;28141;51.120;17.114;2023-03-03T07:33:01;102152.07;;;24.65;25.96
42511;BME280;28141;51.120;17.114;2023-03-03T07:43:35;102141.42;;;24.34;25.98
42511;BME280;28141;51.120;17.114;2023-03-03T07:46:49;102146.76;;;24.36;26.41
42511;BME280;28141;51.120;17.114;2023-03-03T07:50:29;102146.87;;;24.56;26.37
42511;BME280;28141;51.120;17.114;2023-03-03T07:53:43;102152.10;;;24.37;26.57
42511;BME280;28141;51.120;17.114;2023-03-03T08:04:18;102144.04;;;24.15;26.79
42511;BME280;28141;51.120;17.114;2023-03-03T08:07:35;102143.61;;;24.11;26.76
42511;BME280;28141;51.120;17.114;2023-03-03T08:11:13;102144.30;;;24.20;26.91
42511;BME280;28141;51.120;17.114;2023-03-03T08:14:36;102147.27;;;24.18;26.91
42511;BME280;28141;51.120;17.114;2023-03-03T08:17:52;102151.30;;;24.16;26.90
42511;BME280;28141;51.120;17.114;2023-03-03T08:21:34;102149.54;;;24.36;26.85
42511;BME280;28141;51.120;17.114;2023-03-03T08:24:49;102143.68;;;24.52;26.75
42511;BME280;28141;51.120;17.114;2023-03-03T08:28:04;102137.18;;;24.73;26.51
42511;BME280;28141;51.120;17.114;2023-03-03T08:31:19;102129.73;;;24.73;26.44
42511;BME280;28141;51.120;17.114;2023-03-03T08:34:57;102126.04;;;24.66;26.44
42511;BME280;28141;51.120;17.114;2023-03-03T08:38:13;102134.41;;;24.73;26.43
42511;BME280;28141;51.120;17.114;2023-03-03T08:41:27;102138.69;;;24.76;26.51
42511;BME280;28141;51.120;17.114;2023-03-03T08:44:41;102137.66;;;24.83;26.41
42511;BME280;28141;51.120;17.114;2023-03-03T08:48:21;102152.58;;;24.89;26.32
42511;BME280;28141;51.120;17.114;2023-03-03T08:51:35;102157.80;;;24.98;26.18
42511;BME280;28141;51.120;17.114;2023-03-03T08:54:49;102161.33;;;24.86;26.58
42511;BME280;28141;51.120;17.114;2023-03-03T08:58:03;102166.88;;;24.86;26.39
42511;BME280;28141;51.120;17.114;2023-03-03T09:01:43;102174.70;;;24.76;26.33
42511;BME280;28141;51.120;17.114;2023-03-03T09:04:58;102174.73;;;24.82;26.38
42511;BME280;28141;51.120;17.114;2023-03-03T09:08:12;102176.47;;;24.90;26.31
42511;BME280;28141;51.120;17.114;2023-03-03T09:11:28;102166.88;;;24.86;26.32
42511;BME280;28141;51.120;17.114;2023-03-03T09:15:18;102174.54;;;24.84;26.25
42511;BME280;28141;51.120;17.114;2023-03-03T09:18:37;102180.73;;;24.86;26.56
42511;BME280;28141;51.120;17.114;2023-03-03T09:21:53;102185.43;;;24.92;26.57
42511;BME280;28141;51.120;17.114;2023-03-03T09:25:36;102188.91;;;25.00;26.50
42511;BME280;28141;51.120;17.114;2023-03-03T09:28:50;102182.52;;;25.00;26.59
42511;BME280;28141;51.120;17.114;2023-03-03T09:39:26;102186.45;;;25.25;25.85
42511;BME280;28141;51.120;17.114;2023-03-03T09:46:48;102186.05;;;25.35;25.99
42511;BME280;28141;51.120;17.114;2023-03-03T09:50:16;102186.21;;;25.20;26.12
42511;BME280;28141;51.120;17.114;2023-03-03T09:54:08;102202.23;;;25.18;26.14
42511;BME280;28141;51.120;17.114;2023-03-03T09:57:29;102189.83;;;25.14;26.18
42511;BME280;28141;51.120;17.114;2023-03-03T10:22:49;102196.44;;;25.13;26.49
42511;BME280;28141;51.120;17.114;2023-03-03T10:58:53;102165.58;;;25.36;26.58
42511;BME280;28141;51.120;17.114;2023-03-03T11:02:20;102165.98;;;25.33;26.81
42511;BME280;28141;51.120;17.114;2023-03-03T11:06:04;102161.56;;;25.58;26.90
42511;BME280;28141;51.120;17.114;2023-03-03T11:20:55;102155.57;;;25.55;26.61
42511;BME280;28141;51.120;17.114;2023-03-03T11:34:16;102135.34;;;25.87;26.15
42511;BME280;28141;51.120;17.114;2023-03-03T11:45:23;102135.35;;;25.80;25.98
42511;BME280;28141;51.120;17.114;2023-03-03T11:56:21;102143.88;;;25.66;25.80
42511;BME280;28141;51.120;17.114;2023-03-03T11:59:35;102129.37;;;25.77;25.68
42511;BME280;28141;51.120;17.114;2023-03-03T12:13:46;102131.66;;;25.54;25.54
42511;BME280;28141;51.120;17.114;2023-03-03T12:28:16;102122.70;;;25.38;25.91
42511;BME280;28141;51.120;17.114;2023-03-03T12:35:08;102112.70;;;25.64;26.18
42511;BME280;28141;51.120;17.114;2023-03-03T13:11:43;102106.04;;;26.24;25.77
42511;BME280;28141;51.120;17.114;2023-03-03T13:18:58;102109.28;;;26.28;25.81
42511;BME280;28141;51.120;17.114;2023-03-03T13:25:49;102110.53;;;26.32;25.41
42511;BME280;28141;51.120;17.114;2023-03-03T13:29:34;102109.00;;;26.49;25.42
42511;BME280;28141;51.120;17.114;2023-03-03T13:43:42;102103.10;;;26.06;25.28
42511;BME280;28141;51.120;17.114;2023-03-03T13:47:08;102099.87;;;26.09;25.54
42511;BME280;28141;51.120;17.114;2023-03-03T13:50:55;102101.59;;;26.03;25.54
42511;BME280;28141;51.120;17.114;2023-03-03T13:57:44;102087.04;;;26.08;25.62
42511;BME280;28141;51.120;17.114;2023-03-03T14:23:00;102061.81;;;26.23;25.42
42511;BME280;28141;51.120;17.114;2023-03-03T14:26:15;102058.82;;;26.24;25.39
42511;BME280;28141;51.120;17.114;2023-03-03T14:29:31;102062.45;;;26.25;25.42
42511;BME280;28141;51.120;17.114;2023-03-03T14:33:18;102066.07;;;26.38;25.25
42511;BME280;28141;51.120;17.114;2023-03-03T14:36:38;102068.24;;;26.16;25.23
42511;BME280;28141;51.120;17.114;2023-03-03T14:50:33;102056.09;;;26.04;25.06
42511;BME280;28141;51.120;17.114;2023-03-03T14:54:37;102066.75;;;26.07;25.08
42511;BME280;28141;51.120;17.114;2023-03-03T14:57:42;102058.68;;;25.93;24.95
42511;BME280;28141;51.120;17.114;2023-03-03T15:01:06;102062.95;;;25.89;25.11
42511;BME280;28141;51.120;17.114;2023-03-03T15:04:46;102053.77;;;25.75;25.16
42511;BME280;28141;51.120;17.114;2023-03-03T15:08:09;102045.05;;;25.71;25.16
42511;BME280;28141;51.120;17.114;2023-03-03T15:11:31;102043.32;;;25.64;25.20
42511;BME280;28141;51.120;17.114;2023-03-03T15:15:18;102036.49;;;25.66;25.28
42511;BME280;28141;51.120;17.114;2023-03-03T15:18:33;102035.86;;;25.71;24.89
42511;BME280;28141;51.120;17.114;2023-03-03T15:25:43;102038.60;;;25.44;25.32
42511;BME280;28141;51.120;17.114;2023-03-03T15:32:32;102036.29;;;25.41;25.17
42511;BME280;28141;51.120;17.114;2023-03-03T15:43:42;102011.94;;;25.24;25.43
42511;BME280;28141;51.120;17.114;2023-03-03T16:01:52;102018.32;;;25.11;25.53
42511;BME280;28141;51.120;17.114;2023-03-03T16:09:03;102039.44;;;25.12;25.41
42511;BME280;28141;51.120;17.114;2023-03-03T16:30:32;102032.08;;;24.78;25.36
42511;BME280;28141;51.120;17.114;2023-03-03T16:41:23;102018.57;;;24.55;25.61
42511;BME280;28141;51.120;17.114;2023-03-03T16:45:08;102024.38;;;24.60;25.67
42511;BME280;28141;51.120;17.114;2023-03-03T16:52:22;102041.14;;;24.46;25.78
42511;BME280;28141;51.120;17.114;2023-03-03T16:59:12;102040.73;;;24.49;25.77
42511;BME280;28141;51.120;17.114;2023-03-03T17:20:59;102050.24;;;23.98;26.01
42511;BME280;28141;51.120;17.114;2023-03-03T17:25:03;102044.45;;;23.93;26.01
42511;BME280;28141;51.120;17.114;2023-03-03T17:27:55;102039.74;;;23.87;26.10
42511;BME280;28141;51.120;17.114;2023-03-03T17:31:48;102041.20;;;23.83;26.20
42511;BME280;28141;51.120;17.114;2023-03-03T17:53:50;102040.99;;;23.85;26.36
42511;BME280;28141;51.120;17.114;2023-03-03T17:57:17;102038.22;;;23.85;26.39
42511;BME280;28141;51.120;17.114;2023-03-03T18:25:53;102049.89;;;23.80;26.52
42511;BME280;28141;51.120;17.114;2023-03-03T18:29:22;102046.27;;;23.80;26.45
42511;BME280;28141;51.120;17.114;2023-03-03T18:33:10;102045.28;;;23.87;26.45
42511;BME280;28141;51.120;17.114;2023-03-03T18:40:38;102041.85;;;23.85;26.25
42511;BME280;28141;51.120;17.114;2023-03-03T18:47:07;102045.94;;;23.89;26.40
42511;BME280;28141;51.120;17.114;2023-03-03T18:54:04;102047.74;;;23.76;26.57
42511;BME280;28141;51.120;17.114;2023-03-03T18:57:37;102053.94;;;23.78;26.46
42511;BME280;28141;51.120;17.114;2023-03-03T19:04:22;102050.71;;;23.74;26.31
42511;BME280;28141;51.120;17.114;2023-03-03T19:08:17;102057.13;;;23.81;26.47
42511;BME280;28141;51.120;17.114;2023-03-03T19:11:34;102050.98;;;23.79;26.52
42511;BME280;28141;51.120;17.114;2023-03-03T19:14:49;102049.15;;;23.65;26.71
42511;BME280;28141;51.120;17.114;2023-03-03T19:18:33;102051.92;;;23.65;26.58
42511;BME280;28141;51.120;17.114;2023-03-03T19:21:51;102047.28;;;23.72;26.46
42511;BME280;28141;51.120;17.114;2023-03-03T19:29:11;102054.84;;;23.57;26.64
42511;BME280;28141;51.120;17.114;2023-03-03T19:35:56;102061.01;;;23.59;26.68
42511;BME280;28141;51.120;17.114;2023-03-03T19:39:45;102066.15;;;23.62;26.62
42511;BME280;28141;51.120;17.114;2023-03-03T19:46:36;102054.03;;;23.63;26.60
42511;BME280;28141;51.120;17.114;2023-03-03T19:57:30;102051.07;;;23.43;26.74
42511;BME280;28141;51.120;17.114;2023-03-03T20:01:12;102040.87;;;23.44;26.82
42511;BME280;28141;51.120;17.114;2023-03-03T20:04:36;102038.65;;;23.54;26.80
42511;BME280;28141;51.120;17.114;2023-03-03T20:11:56;102038.65;;;23.33;26.70
42511;BME280;28141;51.120;17.114;2023-03-03T20:22:47;102044.88;;;23.41;26.57
42511;BME280;28141;51.120;17.114;2023-03-03T20:26:36;102049.41;;;23.49;26.73
42511;BME280;28141;51.120;17.114;2023-03-03T20:33:34;102040.55;;;23.32;26.95
42511;BME280;28141;51.120;17.114;2023-03-03T20:37:21;102031.35;;;23.25;26.86
42511;BME280;28141;51.120;17.114;2023-03-03T20:44:18;102025.82;;;23.25;26.85
42511;BME280;28141;51.120;17.114;2023-03-03T20:51:28;102030.50;;;23.24;26.64
42511;BME280;28141;51.120;17.114;2023-03-03T20:54:59;102027.50;;;23.26;27.01
42511;BME280;28141;51.120;17.114;2023-03-03T21:02:11;102019.68;;;23.29;26.96
42511;BME280;28141;51.120;17.114;2023-03-03T21:05:25;102022.39;;;23.23;26.92
42511;BME280;28141;51.120;17.114;2023-03-03T21:09:06;102025.41;;;23.28;26.95
42511;BME280;28141;51.120;17.114;2023-03-03T21:12:28;102016.14;;;23.36;26.81
42511;BME280;28141;51.120;17.114;2023-03-03T21:15:42;102015.59;;;23.25;26.98
42511;BME280;28141;51.120;17.114;2023-03-03T21:19:28;102007.96;;;23.27;26.94
42511;BME280;28141;51.120;17.114;2023-03-03T21:22:42;101995.65;;;23.30;26.88
42511;BME280;28141;51.120;17.114;2023-03-03T21:25:57;101991.17;;;23.29;26.67
42511;BME280;28141;51.120;17.114;2023-03-03T21:33:02;101993.04;;;23.22;26.94
42511;BME280;28141;51.120;17.114;2023-03-03T21:39:43;101982.64;;;23.24;26.75
42511;BME280;28141;51.120;17.114;2023-03-03T21:43:47;101982.02;;;23.28;26.91
42511;BME280;28141;51.120;17.114;2023-03-03T21:46:50;101982.41;;;23.25;27.17
42511;BME280;28141;51.120;17.114;2023-03-03T21:50:05;101973.14;;;23.33;26.95
42511;BME280;28141;51.120;17.114;2023-03-03T21:53:44;101969.13;;;23.36;26.86
42511;BME280;28141;51.120;17.114;2023-03-03T21:56:58;101958.62;;;23.24;26.87
42511;BME280;28141;51.120;17.114;2023-03-03T22:00:13;101959.33;;;23.33;26.79
42511;BME280;28141;51.120;17.114;2023-03-03T22:03:27;101959.12;;;23.35;27.07
42511;BME280;28141;51.120;17.114;2023-03-03T22:07:07;101959.25;;;23.26;26.82
42511;BME280;28141;51.120;17.114;2023-03-03T22:10:21;101949.51;;;23.30;26.78
42511;BME280;28141;51.120;17.114;2023-03-03T22:13:35;101949.51;;;23.30;26.66
42511;BME280;28141;51.120;17.114;2023-03-03T22:16:52;101959.33;;;23.33;27.11
42511;BME280;28141;51.120;17.114;2023-03-03T22:20:30;101950.95;;;23.26;26.85
42511;BME280;28141;51.120;17.114;2023-03-03T22:23:44;101930.31;;;23.22;26.88
42511;BME280;28141;51.120;17.114;2023-03-03T22:26:58;101935.64;;;23.24;26.79
42511;BME280;28141;51.120;17.114;2023-03-03T22:30:13;101926.07;;;23.26;26.82
42511;BME280;28141;51.120;17.114;2023-03-03T22:33:51;101923.73;;;23.23;26.89
42511;BME280;28141;51.120;17.114;2023-03-03T22:37:05;101918.33;;;23.15;27.48
42511;BME280;28141;51.120;17.114;2023-03-03T22:40:19;101911.55;;;23.18;26.85
42511;BME280;28141;51.120;17.114;2023-03-03T22:43:33;101908.13;;;23.16;27.29
42511;BME280;28141;51.120;17.114;2023-03-03T22:47:13;101904.01;;;23.05;26.99
42511;BME280;28141;51.120;17.114;2023-03-03T22:50:27;101893.88;;;23.12;26.80
42511;BME280;28141;51.120;17.114;2023-03-03T22:53:41;101889.63;;;23.16;26.95
42511;BME280;28141;51.120;17.114;2023-03-03T22:56:55;101893.45;;;23.15;27.02
42511;BME280;28141;51.120;17.114;2023-03-03T23:00:34;101894.97;;;23.18;26.90
42511;BME280;28141;51.120;17.114;2023-03-03T23:03:50;101891.89;;;23.06;26.88
42511;BME280;28141;51.120;17.114;2023-03-03T23:07:04;101896.84;;;23.11;27.21
42511;BME280;28141;51.120;17.114;2023-03-03T23:10:18;101887.85;;;23.02;26.76
42511;BME280;28141;51.120;17.114;2023-03-03T23:13:57;101886.79;;;23.03;26.98
42511;BME280;28141;51.120;17.114;2023-03-03T23:17:11;101875.78;;;23.10;26.98
42511;BME280;28141;51.120;17.114;2023-03-03T23:20:27;101881.47;;;23.02;26.99
42511;BME280;28141;51.120;17.114;2023-03-03T23:23:42;101866.79;;;23.01;26.70
42511;BME280;28141;51.120;17.114;2023-03-03T23:27:20;101868.04;;;22.99;27.06
42511;BME280;28141;51.120;17.114;2023-03-03T23:30:34;101869.55;;;23.01;27.15
42511;BME280;28141;51.120;17.114;2023-03-03T23:33:48;101871.51;;;23.07;27.04
42511;BME280;28141;51.120;17.114;2023-03-03T23:37:02;101862.55;;;23.05;27.41
42511;BME280;28141;51.120;17.114;2023-03-03T23:40:41;101863.77;;;22.96;27.04
42511;BME280;28141;51.120;17.114;2023-03-03T23:43:55;101844.38;;;22.89;27.21
42511;BME280;28141;51.120;17.114;2023-03-03T23:47:09;101854.42;;;22.97;27.04
42511;BME280;28141;51.120;17.114;2023-03-03T23:50:23;101826.13;;;22.95;27.18
42511;BME280;28141;51.120;17.114;2023-03-03T23:54:02;101831.27;;;22.98;27.06
42511;BME280;28141;51.120;17.114;2023-03-03T23:57:16;101813.86;;;23.04;27.19
